createdAt,value
2018-11-21T00:00:34.165Z,2.31
2018-11-21T00:03:02.459Z,2.40
2018-11-21T00:05:30.663Z,2.49
2018-11-21T00:07:59.452Z,2.66
2018-11-21T00:10:27.618Z,2.84
2018-11-21T00:12:56.919Z,2.90
2018-11-21T00:15:25.444Z,2.89
2018-11-21T00:17:53.615Z,3.00
2018-11-21T00:20:21.878Z,3.17
2018-11-21T00:22:50.335Z,3.08
2018-11-21T00:25:18.566Z,3.07
2018-11-21T00:27:46.716Z,3.06
2018-11-21T00:30:16.033Z,3.02
2018-11-21T00:32:44.211Z,3.08
2018-11-21T00:35:12.367Z,3.09
2018-11-21T00:37:40.582Z,3.09
2018-11-21T00:40:10.693Z,3.01
2018-11-21T00:42:38.847Z,2.77
2018-11-21T00:45:08.143Z,2.81
2018-11-21T00:47:36.298Z,2.60
2018-11-21T00:50:05.507Z,2.42
2018-11-21T00:52:33.672Z,2.49
2018-11-21T00:55:02.411Z,2.59
2018-11-21T00:57:30.101Z,2.65
2018-11-21T00:59:58.577Z,2.69
2018-11-21T01:02:26.737Z,2.69
2018-11-21T01:04:55.071Z,2.70
2018-11-21T01:07:23.532Z,2.75
2018-11-21T01:09:51.712Z,2.75
2018-11-21T01:12:19.867Z,2.69
2018-11-21T01:14:48.028Z,2.70
2018-11-21T01:17:16.232Z,2.75
2018-11-21T01:19:44.376Z,2.77
2018-11-21T01:22:12.895Z,2.83
2018-11-21T01:24:41.330Z,2.81
2018-11-21T01:27:09.478Z,2.79
2018-11-21T01:29:38.048Z,2.76
2018-11-21T01:32:06.211Z,2.76
2018-11-21T01:34:34.478Z,2.76
2018-11-21T01:37:02.635Z,2.76
2018-11-21T01:39:30.788Z,2.76
2018-11-21T01:41:58.954Z,2.77
2018-11-21T01:44:27.501Z,2.79
2018-11-21T01:46:56.069Z,2.77
2018-11-21T01:49:24.607Z,2.76
2018-11-21T01:51:53.176Z,2.75
2018-11-21T01:54:21.360Z,2.71
2018-11-21T01:56:49.547Z,2.72
2018-11-21T01:59:17.716Z,2.73
2018-11-21T02:01:45.882Z,2.68
2018-11-21T02:04:14.049Z,2.69
2018-11-21T02:06:42.254Z,2.67
2018-11-21T02:09:11.776Z,2.65
2018-11-21T02:11:39.944Z,2.65
2018-11-21T02:14:08.315Z,2.64
2018-11-21T02:16:36.687Z,2.68
2018-11-21T02:19:05.836Z,2.65
2018-11-21T02:21:34.051Z,2.65
2018-11-21T02:24:02.585Z,2.65
2018-11-21T02:26:30.753Z,2.65
2018-11-21T02:28:58.910Z,2.62
2018-11-21T02:31:27.096Z,2.63
2018-11-21T02:33:55.261Z,2.63
2018-11-21T02:36:23.415Z,2.62
2018-11-21T02:38:52.016Z,2.59
2018-11-21T02:41:20.175Z,2.57
2018-11-21T02:43:48.468Z,2.53
2018-11-21T02:46:16.904Z,2.50
2018-11-21T02:48:45.408Z,2.47
2018-11-21T02:51:13.976Z,2.46
2018-11-21T02:53:42.137Z,2.48
2018-11-21T02:56:10.706Z,2.44
2018-11-21T02:58:38.899Z,2.43
2018-11-21T03:01:07.067Z,2.44
2018-11-21T03:03:35.334Z,2.49
2018-11-21T03:06:03.524Z,2.50
2018-11-21T03:08:31.997Z,2.52
2018-11-21T03:11:00.165Z,2.56
2018-11-21T03:13:28.606Z,2.63
2018-11-21T03:15:56.475Z,2.78
2018-11-21T03:18:24.626Z,2.71
2018-11-21T03:20:52.806Z,2.73
2018-11-21T03:23:20.965Z,2.57
2018-11-21T03:25:49.117Z,2.63
2018-11-21T03:28:17.283Z,2.64
2018-11-21T03:30:45.495Z,2.56
2018-11-21T03:33:13.694Z,2.48
2018-11-21T03:35:42.319Z,2.46
2018-11-21T03:38:10.496Z,2.48
2018-11-21T03:40:38.659Z,2.51
2018-11-21T03:43:06.835Z,2.52
2018-11-21T03:45:35.330Z,2.56
2018-11-21T03:48:03.597Z,2.60
2018-11-21T03:50:31.748Z,2.61
2018-11-21T03:53:00.219Z,2.55
2018-11-21T03:55:28.392Z,2.44
2018-11-21T03:57:56.962Z,2.44
2018-11-21T04:00:25.118Z,2.44
2018-11-21T04:02:53.750Z,2.38
2018-11-21T04:05:21.904Z,2.29
2018-11-21T04:07:50.107Z,2.32
2018-11-21T04:10:18.307Z,2.39
2018-11-21T04:12:46.456Z,2.43
2018-11-21T04:15:14.750Z,2.45
2018-11-21T04:17:43.018Z,2.31
2018-11-21T04:20:11.304Z,2.13
2018-11-21T04:22:40.393Z,2.04
2018-11-21T04:25:10.100Z,1.96
2018-11-21T04:27:38.525Z,1.91
2018-11-21T04:30:08.255Z,1.97
2018-11-21T04:32:36.402Z,2.07
2018-11-21T04:35:05.004Z,2.18
2018-11-21T04:37:33.444Z,2.21
2018-11-21T04:40:02.016Z,2.07
2018-11-21T04:42:30.576Z,1.99
2018-11-21T04:44:58.741Z,2.02
2018-11-21T04:47:27.288Z,2.10
2018-11-21T04:49:55.446Z,2.00
2018-11-21T04:52:23.596Z,1.84
2018-11-21T04:54:52.628Z,1.80
2018-11-21T04:57:20.846Z,1.79
2018-11-21T04:59:49.451Z,1.84
2018-11-21T05:02:17.596Z,2.11
2018-11-21T05:04:45.736Z,2.12
2018-11-21T05:07:13.954Z,2.16
2018-11-21T05:09:42.113Z,2.19
2018-11-21T05:12:10.302Z,2.21
2018-11-21T05:14:39.262Z,2.27
2018-11-21T05:17:07.359Z,2.36
2018-11-21T05:19:35.884Z,2.42
2018-11-21T05:22:04.125Z,2.54
2018-11-21T05:24:33.857Z,2.53
2018-11-21T05:27:02.021Z,2.43
2018-11-21T05:29:30.168Z,2.32
2018-11-21T05:31:58.639Z,2.33
2018-11-21T05:34:26.808Z,2.35
2018-11-21T05:36:55.050Z,2.34
2018-11-21T05:39:23.280Z,2.32
2018-11-21T05:41:51.433Z,2.25
2018-11-21T05:44:19.904Z,2.16
2018-11-21T05:46:50.534Z,2.13
2018-11-21T05:49:16.581Z,2.12
2018-11-21T05:51:44.845Z,2.12
2018-11-21T05:54:13.040Z,2.16
2018-11-21T05:56:41.206Z,2.11
2018-11-21T05:59:10.679Z,1.97
2018-11-21T06:01:38.186Z,1.67
2018-11-21T06:04:06.415Z,1.59
2018-11-21T06:06:34.613Z,1.44
2018-11-21T06:09:03.081Z,1.24
2018-11-21T06:11:34.337Z,1.27
2018-11-21T06:14:02.497Z,1.30
2018-11-21T06:16:30.911Z,1.34
2018-11-21T06:18:59.070Z,1.32
2018-11-21T06:21:27.343Z,1.28
2018-11-21T06:23:55.534Z,1.22
2018-11-21T06:26:23.784Z,1.13
2018-11-21T06:28:52.245Z,1.01
2018-11-21T06:31:20.978Z,0.87
2018-11-21T06:33:49.133Z,0.76
2018-11-21T06:36:17.726Z,0.73
2018-11-21T06:38:46.004Z,0.72
2018-11-21T06:41:14.146Z,0.66
2018-11-21T06:43:42.324Z,0.59
2018-11-21T06:46:10.513Z,0.57
2018-11-21T06:48:38.659Z,0.60
2018-11-21T06:51:06.985Z,0.60
2018-11-21T06:53:35.145Z,0.51
2018-11-21T06:56:03.303Z,0.50
2018-11-21T06:58:32.001Z,0.27
2018-11-21T07:01:00.504Z,0.04
2018-11-21T07:03:28.664Z,-0.03
2018-11-21T07:05:56.837Z,0.02
2018-11-21T07:08:25.094Z,-0.07
2018-11-21T07:10:53.251Z,-0.05
2018-11-21T07:13:21.432Z,-0.02
2018-11-21T07:15:49.574Z,0.08
2018-11-21T07:18:17.795Z,0.26
2018-11-21T07:20:45.967Z,0.22
2018-11-21T07:23:14.214Z,0.20
2018-11-21T07:25:42.369Z,0.10
2018-11-21T07:28:13.197Z,0.10
2018-11-21T07:30:38.854Z,0.06
2018-11-21T07:33:07.026Z,0.38
2018-11-21T07:35:35.927Z,0.38
2018-11-21T07:38:04.089Z,0.35
2018-11-21T07:40:32.257Z,0.30
2018-11-21T07:43:01.577Z,0.15
2018-11-21T07:45:29.828Z,-0.19
2018-11-21T07:47:57.984Z,-0.19
2018-11-21T07:50:26.180Z,-0.09
2018-11-21T07:52:54.314Z,-0.03
2018-11-21T07:55:22.473Z,0.00
2018-11-21T07:57:53.434Z,0.04
2018-11-21T08:01:07.441Z,0.10
2018-11-21T08:03:44.196Z,0.35
2018-11-21T08:06:23.961Z,0.32
2018-11-21T08:09:11.084Z,0.66
2018-11-21T08:11:48.923Z,0.63
2018-11-21T08:14:35.470Z,0.74
2018-11-21T08:17:11.377Z,0.81
2018-11-21T08:19:47.491Z,0.79
2018-11-21T08:22:38.693Z,0.96
2018-11-21T08:25:37.987Z,1.08
2018-11-21T08:28:43.388Z,1.10
2018-11-21T08:31:11.692Z,1.23
2018-11-21T08:33:39.810Z,1.32
2018-11-21T08:36:08.499Z,1.67
2018-11-21T08:38:36.787Z,1.99
2018-11-21T08:41:05.470Z,2.28
2018-11-21T08:43:33.616Z,2.66
2018-11-21T08:46:02.916Z,2.73
2018-11-21T08:48:31.443Z,2.81
2018-11-21T08:50:59.583Z,2.94
2018-11-21T08:53:27.726Z,3.10
2018-11-21T08:55:56.199Z,3.33
2018-11-21T08:58:24.374Z,3.20
2018-11-21T09:00:52.509Z,2.82
2018-11-21T09:03:20.643Z,2.38
2018-11-21T09:05:49.427Z,1.90
2018-11-21T09:08:17.567Z,2.11
2018-11-21T09:10:45.731Z,2.24
2018-11-21T09:13:14.280Z,2.26
2018-11-21T09:15:42.416Z,2.63
2018-11-21T09:18:10.571Z,2.71
2018-11-21T09:20:39.251Z,2.84
2018-11-21T09:23:07.464Z,2.98
2018-11-21T09:25:35.911Z,3.12
2018-11-21T09:28:05.075Z,3.39
2018-11-21T09:30:33.286Z,3.73
2018-11-21T09:33:01.586Z,3.95
2018-11-21T09:35:30.124Z,3.92
2018-11-21T09:37:58.912Z,4.02
2018-11-21T09:40:27.105Z,4.27
2018-11-21T09:42:56.256Z,4.29
2018-11-21T09:45:25.016Z,4.64
2018-11-21T09:47:53.172Z,4.52
2018-11-21T09:50:25.978Z,4.26
2018-11-21T09:52:54.112Z,4.29
2018-11-21T09:55:22.617Z,4.02
2018-11-21T09:57:51.058Z,3.89
2018-11-21T10:00:56.156Z,3.60
2018-11-21T10:03:32.304Z,3.31
2018-11-21T10:06:21.914Z,3.38
2018-11-21T10:08:57.638Z,3.52
2018-11-21T10:11:25.887Z,3.47
2018-11-21T10:13:54.345Z,3.54
2018-11-21T10:16:22.519Z,3.48
2018-11-21T10:18:52.333Z,3.40
2018-11-21T10:21:24.765Z,3.63
2018-11-21T10:23:52.887Z,3.68
2018-11-21T10:26:21.054Z,3.90
2018-11-21T10:28:50.043Z,3.68
2018-11-21T10:31:18.217Z,3.92
2018-11-21T10:33:46.356Z,4.08
2018-11-21T10:36:15.427Z,3.78
2018-11-21T10:38:43.651Z,3.76
2018-11-21T10:41:11.781Z,3.76
2018-11-21T10:43:39.979Z,3.73
2018-11-21T10:46:08.301Z,3.75
2018-11-21T10:48:36.468Z,3.68
2018-11-21T10:51:05.584Z,3.81
2018-11-21T10:53:33.831Z,3.72
2018-11-21T10:56:02.333Z,3.73
2018-11-21T10:58:30.611Z,3.76
2018-11-21T11:01:16.320Z,3.74
2018-11-21T11:03:48.151Z,3.69
2018-11-21T11:06:33.841Z,3.77
2018-11-21T11:09:21.415Z,3.94
2018-11-21T11:12:15.009Z,3.94
2018-11-21T11:15:11.270Z,3.86
2018-11-21T11:17:59.576Z,4.02
2018-11-21T11:20:44.491Z,4.02
2018-11-21T11:23:30.540Z,4.01
2018-11-21T11:26:27.111Z,3.92
2018-11-21T11:29:13.104Z,3.98
2018-11-21T11:31:59.608Z,3.85
2018-11-21T11:34:49.921Z,3.88
2018-11-21T11:37:35.918Z,3.98
2018-11-21T11:40:27.186Z,3.89
2018-11-21T11:43:17.405Z,4.07
2018-11-21T11:46:15.358Z,4.19
2018-11-21T11:49:21.391Z,4.18
2018-11-21T11:52:07.901Z,4.40
2018-11-21T11:55:10.893Z,4.56
2018-11-21T11:58:10.255Z,4.38
2018-11-21T12:01:03.274Z,4.33
2018-11-21T12:03:46.420Z,4.44
2018-11-21T12:06:32.827Z,4.68
2018-11-21T12:09:19.331Z,4.77
2018-11-21T12:12:12.761Z,4.95
2018-11-21T12:14:59.277Z,5.16
2018-11-21T12:17:49.562Z,5.35
2018-11-21T12:20:31.383Z,5.43
2018-11-21T12:23:17.317Z,5.46
2018-11-21T12:26:12.592Z,5.26
2018-11-21T12:29:17.948Z,5.02
2018-11-21T12:32:06.793Z,5.22
2018-11-21T12:34:53.036Z,5.18
2018-11-21T12:37:39.652Z,5.19
2018-11-21T12:40:36.129Z,5.19
2018-11-21T12:43:22.416Z,4.98
2018-11-21T12:46:08.444Z,4.96
2018-11-21T12:48:56.866Z,4.89
2018-11-21T12:51:45.380Z,4.77
2018-11-21T12:54:28.832Z,4.59
2018-11-21T12:57:08.666Z,4.70
2018-11-21T12:59:50.208Z,4.70
2018-11-21T13:02:36.421Z,4.70
2018-11-21T13:05:22.572Z,4.68
2018-11-21T13:08:08.824Z,4.68
2018-11-21T13:11:04.750Z,4.71
2018-11-21T13:13:50.907Z,4.71
2018-11-21T13:16:47.744Z,4.73
2018-11-21T13:19:33.955Z,4.79
2018-11-21T13:22:12.736Z,4.78
2018-11-21T13:25:02.743Z,4.71
2018-11-21T13:28:03.854Z,4.65
2018-11-21T13:30:51.112Z,4.54
2018-11-21T13:33:25.724Z,4.66
2018-11-21T13:36:09.014Z,4.88
2018-11-21T13:39:11.384Z,4.84
2018-11-21T13:41:53.422Z,4.90
2018-11-21T13:44:41.078Z,4.74
2018-11-21T13:47:27.165Z,4.58
2018-11-21T13:50:14.779Z,4.58
2018-11-21T13:52:58.992Z,4.62
2018-11-21T13:55:27.146Z,4.58
2018-11-21T13:57:55.292Z,4.52
2018-11-21T14:00:23.530Z,4.45
2018-11-21T14:02:51.664Z,4.54
2018-11-21T14:05:19.815Z,4.69
2018-11-21T14:07:48.035Z,4.52
2018-11-21T14:10:16.162Z,4.59
2018-11-21T14:12:44.359Z,4.48
2018-11-21T14:15:13.248Z,4.41
2018-11-21T14:17:41.424Z,4.34
2018-11-21T14:20:11.266Z,4.25
2018-11-21T14:22:39.525Z,4.26
2018-11-21T14:25:09.242Z,4.21
2018-11-21T14:27:37.704Z,4.12
2018-11-21T14:30:11.683Z,4.09
2018-11-21T14:32:40.927Z,4.04
2018-11-21T14:35:10.794Z,4.03
2018-11-21T14:37:39.300Z,3.97
2018-11-21T14:40:10.397Z,3.91
2018-11-21T14:42:38.953Z,3.88
2018-11-21T14:45:09.528Z,3.89
2018-11-21T14:47:38.040Z,3.88
2018-11-21T14:50:17.133Z,3.90
2018-11-21T14:52:45.313Z,3.92
2018-11-21T14:55:13.690Z,3.94
2018-11-21T14:57:41.862Z,3.97
2018-11-21T15:00:15.726Z,4.02
2018-11-21T15:02:44.106Z,4.03
2018-11-21T15:05:12.843Z,3.99
2018-11-21T15:07:41.789Z,3.92
2018-11-21T15:10:10.768Z,3.95
2018-11-21T15:12:39.252Z,3.93
2018-11-21T15:15:10.092Z,3.82
2018-11-21T15:17:38.334Z,3.76
2018-11-21T15:20:09.166Z,3.76
2018-11-21T15:22:37.316Z,3.75
2018-11-21T15:25:07.209Z,3.72
2018-11-21T15:27:36.208Z,3.62
2018-11-21T15:30:07.552Z,3.56
2018-11-21T15:32:35.694Z,3.54
2018-11-21T15:35:04.136Z,3.52
2018-11-21T15:37:32.275Z,3.49
2018-11-21T15:40:00.403Z,3.40
2018-11-21T15:42:28.730Z,3.35
2018-11-21T15:44:56.954Z,3.31
2018-11-21T15:47:25.099Z,3.31
2018-11-21T15:49:53.428Z,3.27
2018-11-21T15:52:21.564Z,3.25
2018-11-21T15:54:49.771Z,3.29
2018-11-21T15:57:18.108Z,3.28
2018-11-21T15:59:46.283Z,3.24
2018-11-21T16:02:15.264Z,3.27
2018-11-21T16:04:47.963Z,3.23
2018-11-21T16:07:11.787Z,3.27
2018-11-21T16:09:39.918Z,3.25
2018-11-21T16:12:08.082Z,3.25
2018-11-21T16:14:36.599Z,3.18
2018-11-21T16:17:04.836Z,3.19
2018-11-21T16:19:33.025Z,3.17
2018-11-21T16:22:01.922Z,3.12
2018-11-21T16:24:30.062Z,3.03
2018-11-21T16:26:58.192Z,2.97
2018-11-21T16:29:26.348Z,2.98
2018-11-21T16:31:54.475Z,2.95
2018-11-21T16:34:22.615Z,3.02
2018-11-21T16:36:50.997Z,3.03
2018-11-21T16:39:19.131Z,2.95
2018-11-21T16:41:47.257Z,2.94
2018-11-21T16:44:15.471Z,2.95
2018-11-21T16:46:43.614Z,2.96
2018-11-21T16:49:11.753Z,2.98
2018-11-21T16:51:39.951Z,3.03
2018-11-21T16:54:08.420Z,2.98
2018-11-21T16:56:36.915Z,2.97
2018-11-21T16:59:05.156Z,2.90
2018-11-21T17:01:33.308Z,2.90
2018-11-21T17:04:01.434Z,2.84
2018-11-21T17:06:29.787Z,2.83
2018-11-21T17:08:57.907Z,2.83
2018-11-21T17:11:26.067Z,2.82
2018-11-21T17:13:54.600Z,2.79
2018-11-21T17:16:23.350Z,2.81
2018-11-21T17:18:51.843Z,2.77
2018-11-21T17:21:20.018Z,2.79
2018-11-21T17:23:48.139Z,2.77
2018-11-21T17:26:16.294Z,2.76
2018-11-21T17:28:44.706Z,2.76
2018-11-21T17:31:13.195Z,2.74
2018-11-21T17:33:42.443Z,2.76
2018-11-21T17:36:10.869Z,2.72
2018-11-21T17:38:39.451Z,2.72
2018-11-21T17:41:07.665Z,2.70
2018-11-21T17:43:35.818Z,2.76
2018-11-21T17:46:04.310Z,2.67
2018-11-21T17:48:33.010Z,2.68
2018-11-21T17:51:01.147Z,2.64
2018-11-21T17:53:29.326Z,2.57
2018-11-21T17:55:57.456Z,2.59
2018-11-21T17:58:26.068Z,2.56
2018-11-21T18:00:54.240Z,2.53
2018-11-21T18:03:23.328Z,2.53
2018-11-21T18:05:50.596Z,2.50
2018-11-21T18:08:18.759Z,2.48
2018-11-21T18:10:46.869Z,2.46
2018-11-21T18:13:14.986Z,2.46
2018-11-21T18:15:43.177Z,2.47
2018-11-21T18:18:11.358Z,2.45
2018-11-21T18:20:39.484Z,2.42
2018-11-21T18:23:07.752Z,2.45
2018-11-21T18:25:37.972Z,2.40
2018-11-21T18:28:06.557Z,2.41
2018-11-21T18:30:34.721Z,2.41
2018-11-21T18:33:02.865Z,2.41
2018-11-21T18:35:35.461Z,2.37
2018-11-21T18:37:59.662Z,2.44
2018-11-21T18:40:29.263Z,2.40
2018-11-21T18:42:57.721Z,2.39
2018-11-21T18:45:32.035Z,2.41
2018-11-21T18:48:00.163Z,2.43
2018-11-21T18:50:28.305Z,2.40
2018-11-21T18:52:57.629Z,2.35
2018-11-21T18:55:28.052Z,2.34
2018-11-21T18:58:29.129Z,2.36
2018-11-21T19:00:57.267Z,2.34
2018-11-21T19:03:25.544Z,2.33
2018-11-21T19:05:54.556Z,2.37
2018-11-21T19:08:22.771Z,2.39
2018-11-21T19:10:51.982Z,2.37
2018-11-21T19:13:20.516Z,2.36
2018-11-21T19:15:48.840Z,2.31
2018-11-21T19:18:16.969Z,2.26
2018-11-21T19:20:45.794Z,2.28
2018-11-21T19:23:13.927Z,2.25
2018-11-21T19:25:42.050Z,2.21
2018-11-21T19:28:11.197Z,2.22
2018-11-21T19:30:39.333Z,2.24
2018-11-21T19:33:07.561Z,2.18
2018-11-21T19:35:35.757Z,2.16
2018-11-21T19:38:03.931Z,2.19
2018-11-21T19:40:32.055Z,2.16
2018-11-21T19:43:00.492Z,2.12
2018-11-21T19:45:28.655Z,2.12
2018-11-21T19:47:56.787Z,2.17
2018-11-21T19:50:25.721Z,2.28
2018-11-21T19:52:55.284Z,2.40
2018-11-21T19:55:25.343Z,2.33
2018-11-21T19:57:53.481Z,2.35
2018-11-21T20:00:23.138Z,2.26
2018-11-21T20:02:52.029Z,2.30
2018-11-21T20:05:20.345Z,2.25
2018-11-21T20:07:48.929Z,2.25
2018-11-21T20:10:17.976Z,2.36
2018-11-21T20:13:23.443Z,2.29
2018-11-21T20:15:51.671Z,2.12
2018-11-21T20:18:19.845Z,2.01
2018-11-21T20:20:48.358Z,2.05
2018-11-21T20:23:16.487Z,2.10
2018-11-21T20:25:44.959Z,2.21
2018-11-21T20:28:13.101Z,2.17
2018-11-21T20:30:41.768Z,2.15
2018-11-21T20:33:12.006Z,2.12
2018-11-21T20:35:40.230Z,2.06
2018-11-21T20:38:09.052Z,2.05
2018-11-21T20:40:38.245Z,2.06
2018-11-21T20:43:06.372Z,2.06
2018-11-21T20:45:34.615Z,2.01
2018-11-21T20:48:03.138Z,2.06
2018-11-21T20:50:31.310Z,2.01
2018-11-21T20:52:59.521Z,1.99
2018-11-21T20:55:29.437Z,2.01
2018-11-21T20:57:57.970Z,2.01
2018-11-21T21:00:27.625Z,2.02
2018-11-21T21:02:55.752Z,2.01
2018-11-21T21:05:24.927Z,2.02
2018-11-21T21:07:53.058Z,2.10
2018-11-21T21:10:25.347Z,2.23
2018-11-21T21:12:53.505Z,2.27
2018-11-21T21:15:21.782Z,2.54
2018-11-21T21:17:50.784Z,2.47
2018-11-21T21:20:20.491Z,2.46
2018-11-21T21:22:50.407Z,2.52
2018-11-21T21:25:20.211Z,2.56
2018-11-21T21:27:48.462Z,2.55
2018-11-21T21:30:18.191Z,2.62
2018-11-21T21:32:47.153Z,2.70
2018-11-21T21:35:16.282Z,2.41
2018-11-21T21:37:44.668Z,2.34
2018-11-21T21:40:20.382Z,2.34
2018-11-21T21:42:45.411Z,2.15
2018-11-21T21:45:15.247Z,2.19
2018-11-21T21:47:43.392Z,2.25
2018-11-21T21:50:12.485Z,2.34
2018-11-21T21:52:41.173Z,2.41
2018-11-21T21:55:10.445Z,2.47
2018-11-21T21:57:38.590Z,2.53
2018-11-21T22:00:14.174Z,2.62
2018-11-21T22:02:42.337Z,2.47
2018-11-21T22:05:11.289Z,2.48
2018-11-21T22:07:39.425Z,2.38
2018-11-21T22:10:09.252Z,2.31
2018-11-21T22:12:37.536Z,2.19
2018-11-21T22:15:14.389Z,2.13
2018-11-21T22:17:42.533Z,2.09
2018-11-21T22:20:10.678Z,2.12
2018-11-21T22:22:38.815Z,2.12
2018-11-21T22:25:07.352Z,2.15
2018-11-21T22:27:35.526Z,2.17
2018-11-21T22:30:04.385Z,2.23
2018-11-21T22:32:32.512Z,2.31
2018-11-21T22:35:01.106Z,2.37
2018-11-21T22:37:29.546Z,2.21
2018-11-21T22:39:57.732Z,2.20
2018-11-21T22:42:26.324Z,2.15
2018-11-21T22:44:54.463Z,2.19
2018-11-21T22:47:22.664Z,2.26
2018-11-21T22:49:50.850Z,2.16
2018-11-21T22:52:19.005Z,2.18
2018-11-21T22:54:47.139Z,2.18
2018-11-21T22:57:15.306Z,2.20
2018-11-21T22:59:43.544Z,2.22
2018-11-21T23:02:11.706Z,2.36
2018-11-21T23:04:39.895Z,2.33
2018-11-21T23:07:08.051Z,2.26
2018-11-21T23:09:36.265Z,2.31
2018-11-21T23:12:04.391Z,2.31
2018-11-21T23:14:32.876Z,2.25
2018-11-21T23:17:01.070Z,2.25
2018-11-21T23:19:29.206Z,2.25
2018-11-21T23:21:57.340Z,2.29
2018-11-21T23:24:25.478Z,2.29
2018-11-21T23:26:53.646Z,2.30
2018-11-21T23:29:21.791Z,2.26
2018-11-21T23:31:49.999Z,2.31
2018-11-21T23:34:18.197Z,2.33
2018-11-21T23:36:47.084Z,2.35
2018-11-21T23:39:15.221Z,2.49
2018-11-21T23:41:43.384Z,2.46
2018-11-21T23:44:11.858Z,2.49
2018-11-21T23:46:40.047Z,2.48
2018-11-21T23:49:08.227Z,2.53
2018-11-21T23:51:36.781Z,2.42
2018-11-21T23:54:05.041Z,2.37
2018-11-21T23:56:33.221Z,2.43
2018-11-21T23:59:01.356Z,2.46
